Lima, OH

4:59 PM EDT on July 30, 2015 (GMT -0400)
APRSWXNET | | Change Station
CLOSE
Current Station
Personal Weather Station
Location: Lima, OH
Elevation: 861 ft
Nearby Weather Stations

Elev 861 ft 40.73 °N, 84.12 °W | Updated 22 minutes ago

Clear
Clear
85 °F
Feels Like 84 °F
N
8
Wind Variable Wind from NW
Gusts 16.0 mph

Today
High -- | Low -- °F
--% Chance of Precip.
Yesterday
High -- | Low -- °F
Precip. -- in
6:30 AM 8:54 PM
Full, 100% visible
Pressure 30.00 in
Visibility 10.0 miles
Clouds Scattered Clouds 6000 ft
Heat Index 84 °F
Dew Point 58 °F
Humidity 40%
Rainfall in
Snow Depth Not available.
UV 5 out of 12
Pollen 6.80 out of 12
Air Quality Not available.
Flu Activity Not available.
METAR KAOH 302053Z AUTO 28014G21KT 10SM SCT060 28/14 A3002 RMK AO2 SLP159 T02830144 58006

More Conditions Fewer Conditions

Pressure 30.00 in
Visibility 10.0 miles
Clouds Scattered Clouds 6000 ft
Heat Index 84 °F
Dew Point 58 °F
Humidity 40%
Rainfall in
Snow Depth Not available.
UV 5 out of 12
Pollen 6.80 out of 12
Air Quality Not available.
Flu Activity Not available.
METAR KAOH 302053Z AUTO 28014G21KT 10SM SCT060 28/14 A3002 RMK AO2 SLP159 T02830144 58006

More Conditions Fewer Conditions

10-Day Weather Forecast

×

Almanac

Astronomy

Jul. 30, 2015 Rise Set
Actual Time
Civil Twilight
Nautical Twilight
Astronomical Twilight
Moon
Length of Visible Light
Length of Day
Tomorrow will be .
, % of the Moon is Illuminated

Today's Extremes

State Highs State Lows

Community

WunderPhotos

Upload Photos

1,842,498 photos uploaded!

WunderBlogs® & News

Nearby

Air Quality

  Air Quality AQ Index Pollutant
Not available.

Snow Depth

Station Depth Elevation

Earthquake Activity

City Distance Mag. Time & Date
Minimum magnitude displayed is 2.5.

Coastal Water Temperatures

Place Temperature

Stations

Nearby Weather Stations

Station Location Temp. Windchill Dew Point Humidity Wind Precip. Elev Updated Type